LFRD/DNR METAR and TAF weather

Enter ICAO airport designator
Station Type Date Time Source
LFRD METAR 2022/05/24 12:00 UTC NOAA

LFRD 241200Z AUTO 31011KT 9999 FEW026/// BKN070/// BKN084/// ///CB 14/09 Q1011 TEMPO 3000 SHRA


Station Type Date Time Source
LFRD Decoded METAR 2022/05/24 12:00 UTC NOAA

Dinard, France (LFRD) 48-35N 002-04W 60M
May 24, 2022 - 08:00 AM EDT / 2022.05.24 1200 UTC
Wind: from the NW (310 degrees) at 13 MPH (11 KT):0
Visibility: greater than 7 mile(s):0
Sky conditions: mostly cloudy
Weather: Cumulonimbus clouds observed
Temperature: 57 F (14 C)
Dew Point: 48 F (9 C)
Relative Humidity: 71%
Pressure (altimeter): 29.85 in. Hg (1011 hPa)
ob: LFRD 241200Z AUTO 31011KT 9999 FEW026/// BKN070/// BKN084/// ///CB 14/09 Q1011 TEMPO 3000 SHRA
cycle: 12

Station Type Date Time Source
LFRD TAF 2022/05/24 12:22 UTC NOAA

TAF LFRD 241100Z 2412/2512 32008KT 9999 BKN030
TEMPO 2412/2414 3000 SHRA BKN025CB
BECMG 2422/2424 VRB04KT PROB40
TEMPO 2500/2505 4000 BR
BECMG 2508/2510 24010KT

Example: see airport list